sensor_id;sensor_type;location;lat;lon;timestamp;P1;durP1;ratioP1;P2;durP2;ratioP2
47009;SDS011;59230;54.164;-3.124;2023-02-10T00:01:24;22.35;;;3.63;;
47009;SDS011;59230;54.164;-3.124;2023-02-10T00:03:56;29.08;;;3.00;;
47009;SDS011;59230;54.164;-3.124;2023-02-10T00:06:24;29.40;;;3.88;;
47009;SDS011;59230;54.164;-3.124;2023-02-10T00:08:54;30.67;;;3.38;;
47009;SDS011;59230;54.164;-3.124;2023-02-10T00:14:09;21.52;;;3.10;;
47009;SDS011;59230;54.164;-3.124;2023-02-10T00:16:37;19.92;;;3.30;;
47009;SDS011;59230;54.164;-3.124;2023-02-10T00:19:04;18.08;;;2.88;;
47009;SDS011;59230;54.164;-3.124;2023-02-10T00:21:30;21.02;;;3.25;;
47009;SDS011;59230;54.164;-3.124;2023-02-10T00:24:00;23.30;;;3.75;;
47009;SDS011;59230;54.164;-3.124;2023-02-10T00:26:27;31.92;;;3.53;;
47009;SDS011;59230;54.164;-3.124;2023-02-10T00:28:53;24.88;;;3.40;;
47009;SDS011;59230;54.164;-3.124;2023-02-10T00:31:21;29.17;;;3.80;;
47009;SDS011;59230;54.164;-3.124;2023-02-10T00:33:47;35.58;;;3.50;;
47009;SDS011;59230;54.164;-3.124;2023-02-10T00:36:13;25.08;;;2.88;;
47009;SDS011;59230;54.164;-3.124;2023-02-10T00:38:41;24.95;;;3.80;;
47009;SDS011;59230;54.164;-3.124;2023-02-10T00:41:12;17.00;;;2.88;;
47009;SDS011;59230;54.164;-3.124;2023-02-10T00:43:56;30.13;;;3.67;;
47009;SDS011;59230;54.164;-3.124;2023-02-10T00:46:23;19.73;;;3.15;;
47009;SDS011;59230;54.164;-3.124;2023-02-10T00:48:49;24.77;;;3.42;;
47009;SDS011;59230;54.164;-3.124;2023-02-10T00:51:17;31.15;;;3.40;;
47009;SDS011;59230;54.164;-3.124;2023-02-10T00:53:46;27.48;;;3.03;;
47009;SDS011;59230;54.164;-3.124;2023-02-10T00:56:15;26.60;;;3.05;;
47009;SDS011;59230;54.164;-3.124;2023-02-10T00:58:43;24.25;;;3.33;;
47009;SDS011;59230;54.164;-3.124;2023-02-10T01:01:10;19.75;;;2.85;;
47009;SDS011;59230;54.164;-3.124;2023-02-10T01:03:42;32.47;;;3.88;;
47009;SDS011;59230;54.164;-3.124;2023-02-10T01:06:11;17.73;;;2.70;;
47009;SDS011;59230;54.164;-3.124;2023-02-10T01:08:43;19.98;;;3.67;;
47009;SDS011;59230;54.164;-3.124;2023-02-10T01:11:12;14.68;;;3.10;;
47009;SDS011;59230;54.164;-3.124;2023-02-10T01:13:40;30.58;;;3.47;;
47009;SDS011;59230;54.164;-3.124;2023-02-10T01:16:10;20.83;;;3.63;;
47009;SDS011;59230;54.164;-3.124;2023-02-10T01:18:48;27.60;;;3.20;;
47009;SDS011;59230;54.164;-3.124;2023-02-10T01:21:17;13.25;;;2.92;;
47009;SDS011;59230;54.164;-3.124;2023-02-10T01:23:44;19.48;;;3.50;;
47009;SDS011;59230;54.164;-3.124;2023-02-10T01:26:10;23.30;;;3.10;;
47009;SDS011;59230;54.164;-3.124;2023-02-10T01:28:38;18.02;;;3.38;;
47009;SDS011;59230;54.164;-3.124;2023-02-10T01:31:10;28.95;;;2.90;;
47009;SDS011;59230;54.164;-3.124;2023-02-10T01:33:46;22.60;;;3.45;;
47009;SDS011;59230;54.164;-3.124;2023-02-10T01:36:18;17.02;;;2.88;;
47009;SDS011;59230;54.164;-3.124;2023-02-10T01:38:48;19.85;;;2.92;;
47009;SDS011;59230;54.164;-3.124;2023-02-10T01:41:20;20.77;;;3.42;;
47009;SDS011;59230;54.164;-3.124;2023-02-10T01:44:06;18.52;;;2.53;;
47009;SDS011;59230;54.164;-3.124;2023-02-10T01:46:53;23.77;;;3.58;;
47009;SDS011;59230;54.164;-3.124;2023-02-10T01:49:24;27.02;;;3.33;;
47009;SDS011;59230;54.164;-3.124;2023-02-10T01:52:00;24.33;;;3.60;;
47009;SDS011;59230;54.164;-3.124;2023-02-10T01:54:36;26.10;;;3.72;;
47009;SDS011;59230;54.164;-3.124;2023-02-10T01:57:04;24.35;;;3.10;;
47009;SDS011;59230;54.164;-3.124;2023-02-10T01:59:30;22.88;;;3.28;;
47009;SDS011;59230;54.164;-3.124;2023-02-10T02:01:58;26.88;;;3.67;;
47009;SDS011;59230;54.164;-3.124;2023-02-10T02:04:29;18.25;;;3.17;;
47009;SDS011;59230;54.164;-3.124;2023-02-10T02:06:55;21.42;;;3.35;;
47009;SDS011;59230;54.164;-3.124;2023-02-10T02:09:21;25.58;;;3.75;;
47009;SDS011;59230;54.164;-3.124;2023-02-10T02:14:53;23.80;;;3.38;;
47009;SDS011;59230;54.164;-3.124;2023-02-10T02:20:22;28.08;;;3.70;;
47009;SDS011;59230;54.164;-3.124;2023-02-10T02:26:05;19.70;;;3.30;;
47009;SDS011;59230;54.164;-3.124;2023-02-10T02:39:40;26.45;;;4.70;;
47009;SDS011;59230;54.164;-3.124;2023-02-10T02:44:43;22.33;;;3.95;;
47009;SDS011;59230;54.164;-3.124;2023-02-10T03:01:37;23.77;;;3.80;;
47009;SDS011;59230;54.164;-3.124;2023-02-10T03:04:34;21.45;;;4.38;;
47009;SDS011;59230;54.164;-3.124;2023-02-10T03:07:01;27.02;;;3.28;;
47009;SDS011;59230;54.164;-3.124;2023-02-10T03:09:29;29.23;;;4.32;;
47009;SDS011;59230;54.164;-3.124;2023-02-10T03:11:55;30.58;;;3.10;;
47009;SDS011;59230;54.164;-3.124;2023-02-10T03:14:21;34.67;;;3.95;;
47009;SDS011;59230;54.164;-3.124;2023-02-10T03:16:50;17.95;;;3.50;;
47009;SDS011;59230;54.164;-3.124;2023-02-10T03:19:16;25.42;;;3.50;;
47009;SDS011;59230;54.164;-3.124;2023-02-10T03:21:44;29.92;;;3.25;;
47009;SDS011;59230;54.164;-3.124;2023-02-10T03:24:13;23.02;;;3.25;;
47009;SDS011;59230;54.164;-3.124;2023-02-10T03:26:41;24.58;;;3.45;;
47009;SDS011;59230;54.164;-3.124;2023-02-10T03:29:06;17.60;;;3.20;;
47009;SDS011;59230;54.164;-3.124;2023-02-10T03:31:32;30.13;;;3.22;;
47009;SDS011;59230;54.164;-3.124;2023-02-10T03:34:01;18.27;;;3.42;;
47009;SDS011;59230;54.164;-3.124;2023-02-10T03:36:28;25.42;;;2.97;;
47009;SDS011;59230;54.164;-3.124;2023-02-10T03:38:55;25.60;;;2.90;;
47009;SDS011;59230;54.164;-3.124;2023-02-10T03:41:24;26.67;;;3.65;;
47009;SDS011;59230;54.164;-3.124;2023-02-10T03:43:51;21.27;;;3.60;;
47009;SDS011;59230;54.164;-3.124;2023-02-10T03:46:20;25.98;;;3.33;;
47009;SDS011;59230;54.164;-3.124;2023-02-10T03:48:48;22.75;;;2.95;;
47009;SDS011;59230;54.164;-3.124;2023-02-10T03:51:14;25.08;;;2.90;;
47009;SDS011;59230;54.164;-3.124;2023-02-10T03:53:43;21.88;;;2.80;;
47009;SDS011;59230;54.164;-3.124;2023-02-10T03:56:14;18.02;;;2.90;;
47009;SDS011;59230;54.164;-3.124;2023-02-10T03:58:42;24.13;;;3.40;;
47009;SDS011;59230;54.164;-3.124;2023-02-10T04:01:13;26.42;;;3.63;;
47009;SDS011;59230;54.164;-3.124;2023-02-10T04:03:41;42.63;;;4.30;;
47009;SDS011;59230;54.164;-3.124;2023-02-10T04:06:08;18.67;;;3.08;;
47009;SDS011;59230;54.164;-3.124;2023-02-10T04:08:35;28.73;;;3.75;;
47009;SDS011;59230;54.164;-3.124;2023-02-10T04:11:01;23.80;;;3.33;;
47009;SDS011;59230;54.164;-3.124;2023-02-10T04:13:26;24.52;;;3.90;;
47009;SDS011;59230;54.164;-3.124;2023-02-10T04:16:03;17.45;;;2.90;;
47009;SDS011;59230;54.164;-3.124;2023-02-10T04:18:32;28.00;;;3.90;;
47009;SDS011;59230;54.164;-3.124;2023-02-10T04:20:59;30.30;;;3.60;;
47009;SDS011;59230;54.164;-3.124;2023-02-10T04:23:27;26.75;;;3.80;;
47009;SDS011;59230;54.164;-3.124;2023-02-10T04:25:53;24.58;;;4.43;;
47009;SDS011;59230;54.164;-3.124;2023-02-10T04:28:19;26.45;;;4.60;;
47009;SDS011;59230;54.164;-3.124;2023-02-10T04:30:45;27.80;;;4.50;;
47009;SDS011;59230;54.164;-3.124;2023-02-10T04:33:12;33.35;;;4.15;;
47009;SDS011;59230;54.164;-3.124;2023-02-10T04:35:39;32.95;;;4.93;;
47009;SDS011;59230;54.164;-3.124;2023-02-10T04:38:06;35.47;;;4.35;;
47009;SDS011;59230;54.164;-3.124;2023-02-10T04:40:33;23.85;;;4.13;;
47009;SDS011;59230;54.164;-3.124;2023-02-10T04:42:59;27.63;;;4.72;;
47009;SDS011;59230;54.164;-3.124;2023-02-10T04:45:24;33.22;;;4.20;;
47009;SDS011;59230;54.164;-3.124;2023-02-10T04:47:50;34.38;;;4.25;;
47009;SDS011;59230;54.164;-3.124;2023-02-10T04:50:15;30.85;;;3.72;;
47009;SDS011;59230;54.164;-3.124;2023-02-10T04:52:41;28.52;;;4.18;;
47009;SDS011;59230;54.164;-3.124;2023-02-10T04:55:07;27.23;;;4.03;;
47009;SDS011;59230;54.164;-3.124;2023-02-10T04:57:35;27.98;;;3.83;;
47009;SDS011;59230;54.164;-3.124;2023-02-10T05:00:04;30.55;;;4.25;;
47009;SDS011;59230;54.164;-3.124;2023-02-10T05:02:30;33.85;;;3.72;;
47009;SDS011;59230;54.164;-3.124;2023-02-10T05:04:57;37.22;;;3.80;;
47009;SDS011;59230;54.164;-3.124;2023-02-10T05:07:23;30.15;;;3.97;;
47009;SDS011;59230;54.164;-3.124;2023-02-10T05:09:52;41.47;;;4.00;;
47009;SDS011;59230;54.164;-3.124;2023-02-10T05:12:20;23.55;;;4.03;;
47009;SDS011;59230;54.164;-3.124;2023-02-10T05:14:47;31.17;;;4.75;;
47009;SDS011;59230;54.164;-3.124;2023-02-10T05:17:12;34.28;;;4.03;;
47009;SDS011;59230;54.164;-3.124;2023-02-10T05:19:39;40.13;;;4.72;;
47009;SDS011;59230;54.164;-3.124;2023-02-10T05:22:06;24.05;;;4.35;;
47009;SDS011;59230;54.164;-3.124;2023-02-10T05:24:35;30.55;;;3.88;;
47009;SDS011;59230;54.164;-3.124;2023-02-10T05:27:02;33.72;;;4.85;;
47009;SDS011;59230;54.164;-3.124;2023-02-10T05:29:30;36.83;;;3.75;;
47009;SDS011;59230;54.164;-3.124;2023-02-10T05:31:56;40.75;;;4.32;;
47009;SDS011;59230;54.164;-3.124;2023-02-10T05:34:21;32.80;;;3.75;;
47009;SDS011;59230;54.164;-3.124;2023-02-10T05:36:48;34.80;;;3.78;;
47009;SDS011;59230;54.164;-3.124;2023-02-10T05:39:21;28.70;;;3.97;;
47009;SDS011;59230;54.164;-3.124;2023-02-10T05:41:51;41.15;;;4.47;;
47009;SDS011;59230;54.164;-3.124;2023-02-10T05:44:20;28.00;;;3.85;;
47009;SDS011;59230;54.164;-3.124;2023-02-10T05:46:48;26.23;;;4.18;;
47009;SDS011;59230;54.164;-3.124;2023-02-10T05:49:14;27.52;;;3.78;;
47009;SDS011;59230;54.164;-3.124;2023-02-10T05:51:41;35.80;;;4.05;;
47009;SDS011;59230;54.164;-3.124;2023-02-10T05:54:08;33.28;;;4.40;;
47009;SDS011;59230;54.164;-3.124;2023-02-10T05:56:35;44.05;;;4.13;;
47009;SDS011;59230;54.164;-3.124;2023-02-10T05:59:03;31.88;;;4.43;;
47009;SDS011;59230;54.164;-3.124;2023-02-10T06:01:34;31.92;;;3.90;;
47009;SDS011;59230;54.164;-3.124;2023-02-10T06:04:02;40.47;;;4.85;;
47009;SDS011;59230;54.164;-3.124;2023-02-10T06:06:28;37.38;;;5.13;;
47009;SDS011;59230;54.164;-3.124;2023-02-10T06:08:54;35.05;;;4.43;;
47009;SDS011;59230;54.164;-3.124;2023-02-10T06:11:22;31.58;;;3.63;;
47009;SDS011;59230;54.164;-3.124;2023-02-10T06:13:51;50.60;;;5.20;;
47009;SDS011;59230;54.164;-3.124;2023-02-10T06:16:17;40.05;;;4.25;;
47009;SDS011;59230;54.164;-3.124;2023-02-10T06:18:46;39.08;;;5.10;;
47009;SDS011;59230;54.164;-3.124;2023-02-10T06:21:15;36.50;;;4.40;;
47009;SDS011;59230;54.164;-3.124;2023-02-10T06:23:42;40.72;;;4.90;;
47009;SDS011;59230;54.164;-3.124;2023-02-10T06:26:11;42.70;;;4.88;;
47009;SDS011;59230;54.164;-3.124;2023-02-10T06:28:43;34.33;;;3.97;;
47009;SDS011;59230;54.164;-3.124;2023-02-10T06:31:12;45.08;;;5.10;;
47009;SDS011;59230;54.164;-3.124;2023-02-10T06:33:40;38.65;;;4.55;;
47009;SDS011;59230;54.164;-3.124;2023-02-10T06:36:07;51.35;;;4.90;;
47009;SDS011;59230;54.164;-3.124;2023-02-10T06:38:38;35.40;;;4.40;;
47009;SDS011;59230;54.164;-3.124;2023-02-10T06:41:04;33.83;;;4.25;;
47009;SDS011;59230;54.164;-3.124;2023-02-10T06:43:31;43.78;;;5.85;;
47009;SDS011;59230;54.164;-3.124;2023-02-10T06:45:58;51.13;;;6.60;;
47009;SDS011;59230;54.164;-3.124;2023-02-10T06:48:23;47.20;;;5.50;;
47009;SDS011;59230;54.164;-3.124;2023-02-10T06:50:52;47.72;;;4.88;;
47009;SDS011;59230;54.164;-3.124;2023-02-10T06:53:19;45.88;;;5.03;;
47009;SDS011;59230;54.164;-3.124;2023-02-10T06:55:47;45.45;;;4.63;;
47009;SDS011;59230;54.164;-3.124;2023-02-10T06:58:14;47.28;;;5.63;;
47009;SDS011;59230;54.164;-3.124;2023-02-10T07:00:42;47.28;;;5.95;;
47009;SDS011;59230;54.164;-3.124;2023-02-10T07:03:10;41.95;;;5.20;;
47009;SDS011;59230;54.164;-3.124;2023-02-10T07:05:39;46.92;;;4.60;;
47009;SDS011;59230;54.164;-3.124;2023-02-10T07:08:07;39.53;;;5.00;;
47009;SDS011;59230;54.164;-3.124;2023-02-10T07:10:37;38.35;;;4.45;;
47009;SDS011;59230;54.164;-3.124;2023-02-10T07:13:04;45.85;;;5.78;;
47009;SDS011;59230;54.164;-3.124;2023-02-10T07:15:32;48.58;;;5.07;;
47009;SDS011;59230;54.164;-3.124;2023-02-10T07:17:59;46.65;;;5.55;;
47009;SDS011;59230;54.164;-3.124;2023-02-10T07:20:25;54.17;;;5.47;;
47009;SDS011;59230;54.164;-3.124;2023-02-10T07:22:52;38.80;;;4.88;;
47009;SDS011;59230;54.164;-3.124;2023-02-10T07:25:18;37.83;;;4.55;;
47009;SDS011;59230;54.164;-3.124;2023-02-10T07:27:47;48.58;;;5.15;;
47009;SDS011;59230;54.164;-3.124;2023-02-10T07:30:16;47.35;;;4.55;;
47009;SDS011;59230;54.164;-3.124;2023-02-10T07:32:41;50.90;;;5.18;;
47009;SDS011;59230;54.164;-3.124;2023-02-10T07:35:10;44.58;;;5.35;;
47009;SDS011;59230;54.164;-3.124;2023-02-10T07:37:37;52.10;;;4.90;;
47009;SDS011;59230;54.164;-3.124;2023-02-10T07:40:04;54.28;;;5.68;;
47009;SDS011;59230;54.164;-3.124;2023-02-10T07:42:36;46.33;;;4.50;;
47009;SDS011;59230;54.164;-3.124;2023-02-10T07:45:02;50.92;;;5.03;;
47009;SDS011;59230;54.164;-3.124;2023-02-10T07:47:28;46.33;;;4.60;;
47009;SDS011;59230;54.164;-3.124;2023-02-10T07:49:56;46.60;;;4.70;;
47009;SDS011;59230;54.164;-3.124;2023-02-10T07:52:23;49.17;;;6.18;;
47009;SDS011;59230;54.164;-3.124;2023-02-10T07:54:51;51.85;;;5.50;;
47009;SDS011;59230;54.164;-3.124;2023-02-10T07:57:18;62.22;;;5.78;;
47009;SDS011;59230;54.164;-3.124;2023-02-10T07:59:44;44.90;;;4.82;;
47009;SDS011;59230;54.164;-3.124;2023-02-10T08:02:12;55.08;;;5.68;;
47009;SDS011;59230;54.164;-3.124;2023-02-10T08:04:39;44.50;;;4.18;;
47009;SDS011;59230;54.164;-3.124;2023-02-10T08:07:07;49.50;;;4.57;;
47009;SDS011;59230;54.164;-3.124;2023-02-10T08:09:37;57.63;;;5.10;;
47009;SDS011;59230;54.164;-3.124;2023-02-10T08:12:03;51.80;;;5.10;;
47009;SDS011;59230;54.164;-3.124;2023-02-10T08:14:31;63.00;;;5.80;;
47009;SDS011;59230;54.164;-3.124;2023-02-10T08:16:59;64.65;;;5.88;;
47009;SDS011;59230;54.164;-3.124;2023-02-10T08:19:25;60.75;;;5.32;;
47009;SDS011;59230;54.164;-3.124;2023-02-10T08:21:51;62.95;;;4.82;;
47009;SDS011;59230;54.164;-3.124;2023-02-10T08:24:20;55.40;;;5.90;;
47009;SDS011;59230;54.164;-3.124;2023-02-10T08:26:48;47.53;;;5.38;;
47009;SDS011;59230;54.164;-3.124;2023-02-10T08:29:16;78.35;;;6.97;;
47009;SDS011;59230;54.164;-3.124;2023-02-10T08:31:42;56.60;;;6.22;;
47009;SDS011;59230;54.164;-3.124;2023-02-10T08:34:17;52.50;;;5.38;;
47009;SDS011;59230;54.164;-3.124;2023-02-10T08:36:44;46.38;;;5.22;;
47009;SDS011;59230;54.164;-3.124;2023-02-10T08:39:15;55.95;;;5.38;;
47009;SDS011;59230;54.164;-3.124;2023-02-10T08:41:41;53.72;;;4.82;;
47009;SDS011;59230;54.164;-3.124;2023-02-10T08:44:09;59.00;;;4.95;;
47009;SDS011;59230;54.164;-3.124;2023-02-10T08:46:35;51.92;;;4.95;;
47009;SDS011;59230;54.164;-3.124;2023-02-10T08:49:00;57.30;;;5.88;;
47009;SDS011;59230;54.164;-3.124;2023-02-10T08:51:28;56.17;;;5.07;;
47009;SDS011;59230;54.164;-3.124;2023-02-10T08:53:56;62.63;;;5.57;;
47009;SDS011;59230;54.164;-3.124;2023-02-10T08:56:21;57.15;;;5.90;;
47009;SDS011;59230;54.164;-3.124;2023-02-10T08:58:49;63.85;;;5.45;;
47009;SDS011;59230;54.164;-3.124;2023-02-10T09:01:16;47.25;;;4.35;;
47009;SDS011;59230;54.164;-3.124;2023-02-10T09:03:43;40.38;;;4.93;;
47009;SDS011;59230;54.164;-3.124;2023-02-10T09:06:16;59.03;;;5.75;;
47009;SDS011;59230;54.164;-3.124;2023-02-10T09:08:48;62.28;;;4.78;;
47009;SDS011;59230;54.164;-3.124;2023-02-10T09:11:19;55.95;;;5.47;;
47009;SDS011;59230;54.164;-3.124;2023-02-10T09:13:50;42.13;;;4.43;;
47009;SDS011;59230;54.164;-3.124;2023-02-10T09:16:17;47.60;;;4.85;;
47009;SDS011;59230;54.164;-3.124;2023-02-10T09:18:42;52.22;;;5.38;;
47009;SDS011;59230;54.164;-3.124;2023-02-10T09:21:09;63.67;;;5.43;;
47009;SDS011;59230;54.164;-3.124;2023-02-10T09:23:37;53.10;;;5.50;;
47009;SDS011;59230;54.164;-3.124;2023-02-10T09:26:03;53.10;;;4.72;;
47009;SDS011;59230;54.164;-3.124;2023-02-10T09:28:33;50.58;;;4.97;;
47009;SDS011;59230;54.164;-3.124;2023-02-10T09:31:03;53.05;;;5.38;;
47009;SDS011;59230;54.164;-3.124;2023-02-10T09:33:37;50.78;;;5.20;;
47009;SDS011;59230;54.164;-3.124;2023-02-10T09:36:04;44.67;;;4.45;;
47009;SDS011;59230;54.164;-3.124;2023-02-10T09:38:31;46.33;;;5.22;;
47009;SDS011;59230;54.164;-3.124;2023-02-10T09:55:06;65.70;;;4.88;;
47009;SDS011;59230;54.164;-3.124;2023-02-10T10:00:43;47.35;;;3.95;;
47009;SDS011;59230;54.164;-3.124;2023-02-10T10:03:18;56.40;;;5.10;;
47009;SDS011;59230;54.164;-3.124;2023-02-10T10:06:09;42.88;;;5.30;;
47009;SDS011;59230;54.164;-3.124;2023-02-10T10:08:53;64.45;;;6.10;;
47009;SDS011;59230;54.164;-3.124;2023-02-10T10:11:38;54.97;;;5.90;;
47009;SDS011;59230;54.164;-3.124;2023-02-10T10:14:21;65.95;;;5.45;;
47009;SDS011;59230;54.164;-3.124;2023-02-10T10:19:54;50.83;;;6.47;;
47009;SDS011;59230;54.164;-3.124;2023-02-10T10:22:49;62.70;;;5.40;;
47009;SDS011;59230;54.164;-3.124;2023-02-10T10:36:05;54.50;;;5.65;;
47009;SDS011;59230;54.164;-3.124;2023-02-10T10:38:37;72.43;;;7.00;;
47009;SDS011;59230;54.164;-3.124;2023-02-10T10:41:14;52.83;;;5.78;;
47009;SDS011;59230;54.164;-3.124;2023-02-10T10:48:53;49.92;;;5.70;;
47009;SDS011;59230;54.164;-3.124;2023-02-10T10:51:22;55.40;;;8.25;;
47009;SDS011;59230;54.164;-3.124;2023-02-10T10:53:53;76.68;;;5.95;;
47009;SDS011;59230;54.164;-3.124;2023-02-10T10:58:48;49.95;;;5.97;;
47009;SDS011;59230;54.164;-3.124;2023-02-10T11:01:16;58.85;;;5.80;;
47009;SDS011;59230;54.164;-3.124;2023-02-10T11:03:44;51.30;;;5.30;;
47009;SDS011;59230;54.164;-3.124;2023-02-10T11:06:14;68.50;;;8.00;;
47009;SDS011;59230;54.164;-3.124;2023-02-10T11:08:45;54.72;;;5.15;;
47009;SDS011;59230;54.164;-3.124;2023-02-10T11:11:30;41.90;;;5.15;;
47009;SDS011;59230;54.164;-3.124;2023-02-10T11:13:58;50.38;;;4.75;;
47009;SDS011;59230;54.164;-3.124;2023-02-10T11:16:25;50.17;;;4.80;;
47009;SDS011;59230;54.164;-3.124;2023-02-10T11:18:58;45.20;;;5.07;;
47009;SDS011;59230;54.164;-3.124;2023-02-10T11:21:37;61.72;;;6.68;;
47009;SDS011;59230;54.164;-3.124;2023-02-10T11:24:28;53.00;;;5.60;;
47009;SDS011;59230;54.164;-3.124;2023-02-10T11:27:00;44.85;;;5.75;;
47009;SDS011;59230;54.164;-3.124;2023-02-10T11:29:34;55.00;;;6.47;;
47009;SDS011;59230;54.164;-3.124;2023-02-10T11:32:05;56.97;;;6.57;;
47009;SDS011;59230;54.164;-3.124;2023-02-10T11:37:18;66.05;;;7.00;;
47009;SDS011;59230;54.164;-3.124;2023-02-10T11:40:00;64.40;;;6.55;;
47009;SDS011;59230;54.164;-3.124;2023-02-10T11:42:31;50.75;;;5.60;;
47009;SDS011;59230;54.164;-3.124;2023-02-10T11:45:50;55.63;;;6.70;;
47009;SDS011;59230;54.164;-3.124;2023-02-10T11:47:58;56.22;;;6.65;;
47009;SDS011;59230;54.164;-3.124;2023-02-10T11:50:44;64.10;;;6.47;;
47009;SDS011;59230;54.164;-3.124;2023-02-10T11:53:21;62.75;;;6.20;;
47009;SDS011;59230;54.164;-3.124;2023-02-10T12:02:21;55.30;;;6.18;;
47009;SDS011;59230;54.164;-3.124;2023-02-10T12:05:18;49.80;;;5.72;;
47009;SDS011;59230;54.164;-3.124;2023-02-10T12:21:14;39.53;;;4.38;;
47009;SDS011;59230;54.164;-3.124;2023-02-10T12:29:34;39.17;;;4.13;;
47009;SDS011;59230;54.164;-3.124;2023-02-10T12:32:25;33.75;;;5.15;;
47009;SDS011;59230;54.164;-3.124;2023-02-10T12:41:23;35.53;;;4.00;;
47009;SDS011;59230;54.164;-3.124;2023-02-10T12:43:58;39.85;;;4.22;;
47009;SDS011;59230;54.164;-3.124;2023-02-10T12:50:10;40.58;;;4.90;;
47009;SDS011;59230;54.164;-3.124;2023-02-10T12:52:42;35.60;;;3.97;;
47009;SDS011;59230;54.164;-3.124;2023-02-10T12:55:18;49.30;;;4.53;;
47009;SDS011;59230;54.164;-3.124;2023-02-10T12:57:51;42.92;;;4.88;;
47009;SDS011;59230;54.164;-3.124;2023-02-10T13:00:25;33.25;;;3.92;;
47009;SDS011;59230;54.164;-3.124;2023-02-10T13:02:59;30.17;;;3.13;;
47009;SDS011;59230;54.164;-3.124;2023-02-10T13:09:00;29.55;;;4.38;;
47009;SDS011;59230;54.164;-3.124;2023-02-10T13:11:55;29.17;;;4.13;;
47009;SDS011;59230;54.164;-3.124;2023-02-10T13:14:51;27.30;;;3.85;;
47009;SDS011;59230;54.164;-3.124;2023-02-10T13:17:20;29.80;;;3.97;;
47009;SDS011;59230;54.164;-3.124;2023-02-10T13:23:03;31.80;;;3.92;;
47009;SDS011;59230;54.164;-3.124;2023-02-10T13:28:39;26.20;;;3.55;;
47009;SDS011;59230;54.164;-3.124;2023-02-10T13:36:41;36.67;;;3.90;;
47009;SDS011;59230;54.164;-3.124;2023-02-10T13:39:21;20.25;;;2.92;;
47009;SDS011;59230;54.164;-3.124;2023-02-10T13:41:50;39.03;;;3.67;;
47009;SDS011;59230;54.164;-3.124;2023-02-10T13:44:33;27.58;;;4.28;;
47009;SDS011;59230;54.164;-3.124;2023-02-10T13:47:13;29.45;;;3.28;;
47009;SDS011;59230;54.164;-3.124;2023-02-10T13:50:01;27.23;;;4.05;;
47009;SDS011;59230;54.164;-3.124;2023-02-10T14:08:40;27.15;;;3.47;;
47009;SDS011;59230;54.164;-3.124;2023-02-10T14:13:43;23.80;;;3.20;;
47009;SDS011;59230;54.164;-3.124;2023-02-10T14:18:56;18.67;;;3.10;;
47009;SDS011;59230;54.164;-3.124;2023-02-10T14:21:41;26.15;;;3.05;;
47009;SDS011;59230;54.164;-3.124;2023-02-10T14:27:10;23.13;;;3.35;;
47009;SDS011;59230;54.164;-3.124;2023-02-10T14:29:39;19.17;;;2.92;;
47009;SDS011;59230;54.164;-3.124;2023-02-10T14:32:31;26.33;;;3.15;;
47009;SDS011;59230;54.164;-3.124;2023-02-10T14:35:14;30.77;;;3.42;;
47009;SDS011;59230;54.164;-3.124;2023-02-10T14:37:50;21.15;;;3.50;;
47009;SDS011;59230;54.164;-3.124;2023-02-10T14:40:20;24.67;;;4.05;;
47009;SDS011;59230;54.164;-3.124;2023-02-10T14:42:48;19.40;;;3.22;;
47009;SDS011;59230;54.164;-3.124;2023-02-10T14:45:22;28.02;;;3.58;;
47009;SDS011;59230;54.164;-3.124;2023-02-10T14:47:57;30.45;;;3.80;;
47009;SDS011;59230;54.164;-3.124;2023-02-10T14:50:27;25.40;;;3.70;;
47009;SDS011;59230;54.164;-3.124;2023-02-10T14:52:58;19.77;;;3.83;;
47009;SDS011;59230;54.164;-3.124;2023-02-10T14:55:25;24.00;;;3.28;;
47009;SDS011;59230;54.164;-3.124;2023-02-10T15:00:35;24.80;;;3.00;;
47009;SDS011;59230;54.164;-3.124;2023-02-10T15:03:02;18.60;;;3.38;;
47009;SDS011;59230;54.164;-3.124;2023-02-10T15:05:31;22.35;;;2.50;;
47009;SDS011;59230;54.164;-3.124;2023-02-10T15:08:02;20.25;;;2.92;;
47009;SDS011;59230;54.164;-3.124;2023-02-10T15:10:34;20.70;;;3.25;;
47009;SDS011;59230;54.164;-3.124;2023-02-10T15:13:01;19.52;;;2.50;;
47009;SDS011;59230;54.164;-3.124;2023-02-10T15:15:31;24.50;;;2.85;;
47009;SDS011;59230;54.164;-3.124;2023-02-10T15:18:11;23.08;;;2.83;;
47009;SDS011;59230;54.164;-3.124;2023-02-10T15:20:53;19.27;;;2.58;;
47009;SDS011;59230;54.164;-3.124;2023-02-10T15:23:26;21.67;;;2.85;;
47009;SDS011;59230;54.164;-3.124;2023-02-10T15:26:03;19.67;;;3.80;;
47009;SDS011;59230;54.164;-3.124;2023-02-10T15:28:45;19.45;;;2.70;;
47009;SDS011;59230;54.164;-3.124;2023-02-10T15:36:34;19.80;;;2.63;;
47009;SDS011;59230;54.164;-3.124;2023-02-10T15:39:26;20.40;;;2.33;;
47009;SDS011;59230;54.164;-3.124;2023-02-10T15:44:25;21.58;;;3.20;;
47009;SDS011;59230;54.164;-3.124;2023-02-10T15:49:46;27.10;;;2.90;;
47009;SDS011;59230;54.164;-3.124;2023-02-10T15:55:05;13.50;;;2.75;;
47009;SDS011;59230;54.164;-3.124;2023-02-10T15:57:41;14.38;;;2.60;;
47009;SDS011;59230;54.164;-3.124;2023-02-10T16:00:16;18.55;;;2.35;;
47009;SDS011;59230;54.164;-3.124;2023-02-10T16:02:48;17.10;;;3.13;;
47009;SDS011;59230;54.164;-3.124;2023-02-10T16:05:14;18.98;;;2.50;;
47009;SDS011;59230;54.164;-3.124;2023-02-10T16:07:42;16.13;;;2.53;;
47009;SDS011;59230;54.164;-3.124;2023-02-10T16:10:18;15.85;;;2.53;;
47009;SDS011;59230;54.164;-3.124;2023-02-10T16:12:52;12.90;;;2.50;;
47009;SDS011;59230;54.164;-3.124;2023-02-10T16:15:20;21.38;;;2.67;;
47009;SDS011;59230;54.164;-3.124;2023-02-10T16:17:53;12.57;;;2.40;;
47009;SDS011;59230;54.164;-3.124;2023-02-10T16:20:22;18.52;;;2.92;;
47009;SDS011;59230;54.164;-3.124;2023-02-10T16:22:55;14.80;;;2.40;;
47009;SDS011;59230;54.164;-3.124;2023-02-10T16:25:23;14.15;;;2.60;;
47009;SDS011;59230;54.164;-3.124;2023-02-10T16:27:53;19.52;;;3.22;;
47009;SDS011;59230;54.164;-3.124;2023-02-10T16:30:20;22.33;;;2.88;;
47009;SDS011;59230;54.164;-3.124;2023-02-10T16:32:55;20.88;;;2.85;;
47009;SDS011;59230;54.164;-3.124;2023-02-10T16:35:23;21.77;;;2.88;;
47009;SDS011;59230;54.164;-3.124;2023-02-10T16:37:52;21.70;;;3.22;;
47009;SDS011;59230;54.164;-3.124;2023-02-10T16:40:26;16.48;;;2.88;;
47009;SDS011;59230;54.164;-3.124;2023-02-10T16:42:54;20.17;;;2.80;;
47009;SDS011;59230;54.164;-3.124;2023-02-10T16:45:23;21.35;;;2.42;;
47009;SDS011;59230;54.164;-3.124;2023-02-10T16:47:51;22.65;;;2.95;;
47009;SDS011;59230;54.164;-3.124;2023-02-10T16:50:29;19.70;;;3.67;;
47009;SDS011;59230;54.164;-3.124;2023-02-10T16:52:58;18.50;;;3.20;;
47009;SDS011;59230;54.164;-3.124;2023-02-10T16:55:24;19.67;;;3.75;;
47009;SDS011;59230;54.164;-3.124;2023-02-10T16:57:52;25.02;;;4.10;;
47009;SDS011;59230;54.164;-3.124;2023-02-10T17:00:20;24.23;;;2.85;;
47009;SDS011;59230;54.164;-3.124;2023-02-10T17:02:51;22.48;;;2.88;;
47009;SDS011;59230;54.164;-3.124;2023-02-10T17:05:18;20.00;;;3.45;;
47009;SDS011;59230;54.164;-3.124;2023-02-10T17:07:47;21.40;;;3.65;;
47009;SDS011;59230;54.164;-3.124;2023-02-10T17:10:14;25.20;;;4.03;;
47009;SDS011;59230;54.164;-3.124;2023-02-10T17:12:44;24.80;;;4.72;;
47009;SDS011;59230;54.164;-3.124;2023-02-10T17:15:14;23.65;;;3.50;;
47009;SDS011;59230;54.164;-3.124;2023-02-10T17:17:42;20.27;;;3.10;;
47009;SDS011;59230;54.164;-3.124;2023-02-10T17:20:22;22.17;;;3.80;;
47009;SDS011;59230;54.164;-3.124;2023-02-10T17:22:50;20.73;;;3.00;;
47009;SDS011;59230;54.164;-3.124;2023-02-10T17:25:20;22.42;;;3.83;;
47009;SDS011;59230;54.164;-3.124;2023-02-10T17:27:48;25.17;;;4.30;;
47009;SDS011;59230;54.164;-3.124;2023-02-10T17:30:17;20.08;;;2.92;;
47009;SDS011;59230;54.164;-3.124;2023-02-10T17:32:47;24.17;;;3.17;;